createdAt,value
2018-08-03T00:00:11.428Z,58.60
2018-08-03T00:02:46.585Z,59.50
2018-08-03T00:05:21.636Z,58.30
2018-08-03T00:07:56.783Z,58.20
2018-08-03T00:10:32.009Z,59.60
2018-08-03T00:13:07.027Z,60.30
2018-08-03T00:15:41.967Z,59.20
2018-08-03T00:18:16.972Z,59.70
2018-08-03T00:20:51.973Z,61.40
2018-08-03T00:23:27.028Z,59.60
2018-08-03T00:26:02.028Z,59.80
2018-08-03T00:28:37.123Z,60.10
2018-08-03T00:31:12.079Z,58.30
2018-08-03T00:33:47.219Z,59.30
2018-08-03T00:36:22.353Z,59.90
2018-08-03T00:38:57.468Z,58.80
2018-08-03T00:41:32.547Z,59.50
2018-08-03T00:44:07.741Z,59.40
2018-08-03T00:46:42.824Z,59.20
2018-08-03T00:49:17.849Z,60.50
2018-08-03T00:51:53.009Z,60.60
2018-08-03T00:54:27.996Z,60.20
2018-08-03T00:57:03.207Z,61.10
2018-08-03T00:59:38.304Z,61.50
2018-08-03T01:02:13.336Z,62.00
2018-08-03T01:07:23.256Z,60.60
2018-08-03T01:09:58.228Z,60.00
2018-08-03T01:12:33.205Z,60.20
2018-08-03T01:15:08.383Z,61.00
2018-08-03T01:17:43.325Z,61.00
2018-08-03T01:20:18.427Z,61.20
2018-08-03T01:22:53.480Z,61.50
2018-08-03T01:25:28.740Z,61.50
2018-08-03T01:28:03.828Z,62.20
2018-08-03T01:30:38.927Z,62.00
2018-08-03T01:33:14.116Z,63.00
2018-08-03T01:35:49.160Z,63.20
2018-08-03T01:38:24.253Z,62.40
2018-08-03T01:40:59.358Z,63.50
2018-08-03T01:43:34.452Z,63.20
2018-08-03T01:46:09.511Z,63.80
2018-08-03T01:48:44.540Z,63.80
2018-08-03T01:51:20.428Z,63.00
2018-08-03T01:53:55.556Z,63.90
2018-08-03T01:56:30.704Z,64.60
2018-08-03T01:59:05.793Z,64.90
2018-08-03T02:01:40.972Z,63.40
2018-08-03T02:04:15.948Z,64.40
2018-08-03T02:06:51.051Z,64.10
2018-08-03T02:09:26.109Z,62.00
2018-08-03T02:12:01.083Z,63.20
2018-08-03T02:14:36.141Z,64.50
2018-08-03T02:17:11.204Z,65.60
2018-08-03T02:19:46.184Z,64.20
2018-08-03T02:22:21.140Z,65.50
2018-08-03T02:24:56.276Z,65.10
2018-08-03T02:27:31.528Z,63.10
2018-08-03T02:30:06.655Z,62.70
2018-08-03T02:32:41.616Z,62.50
2018-08-03T02:37:51.560Z,65.40
2018-08-03T02:40:26.620Z,64.60
2018-08-03T02:43:01.697Z,65.50
2018-08-03T02:45:36.916Z,65.50
2018-08-03T02:48:11.981Z,66.40
2018-08-03T02:50:47.109Z,66.80
2018-08-03T02:53:22.080Z,66.30
2018-08-03T02:55:57.224Z,66.60
2018-08-03T02:58:32.178Z,67.40
2018-08-03T03:01:07.846Z,67.20
2018-08-03T03:03:42.918Z,66.00
2018-08-03T03:06:18.077Z,66.40
2018-08-03T03:08:53.193Z,67.60
2018-08-03T03:11:28.189Z,66.60
2018-08-03T03:14:03.494Z,68.00
2018-08-03T03:16:38.477Z,68.70
2018-08-03T03:19:13.640Z,68.30
2018-08-03T03:21:48.784Z,67.30
2018-08-03T03:24:23.796Z,66.20
2018-08-03T03:26:58.820Z,67.20
2018-08-03T03:29:33.941Z,67.80
2018-08-03T03:32:09.064Z,69.30
2018-08-03T03:34:44.192Z,66.10
2018-08-03T03:37:19.408Z,66.20
2018-08-03T03:39:54.344Z,67.50
2018-08-03T03:42:29.444Z,67.00
2018-08-03T03:45:04.976Z,63.60
2018-08-03T03:47:39.904Z,64.80
2018-08-03T03:50:15.040Z,67.50
2018-08-03T03:52:50.140Z,68.70
2018-08-03T03:55:25.360Z,69.10
2018-08-03T03:58:00.324Z,67.90
2018-08-03T04:00:35.374Z,67.50
2018-08-03T04:03:10.414Z,67.70
2018-08-03T04:05:45.528Z,67.90
2018-08-03T04:08:20.528Z,68.20
2018-08-03T04:10:55.685Z,68.90
2018-08-03T04:13:31.139Z,69.30
2018-08-03T04:18:41.187Z,69.00
2018-08-03T04:21:16.292Z,69.10
2018-08-03T04:23:51.253Z,68.20
2018-08-03T04:26:26.243Z,69.10
2018-08-03T04:29:01.228Z,69.00
2018-08-03T04:31:36.296Z,68.90
2018-08-03T04:34:11.407Z,69.20
2018-08-03T04:36:46.493Z,70.20
2018-08-03T04:39:21.504Z,72.00
2018-08-03T04:41:56.739Z,71.10
2018-08-03T04:44:31.657Z,69.90
2018-08-03T04:47:06.654Z,69.80
2018-08-03T04:49:41.628Z,70.40
2018-08-03T04:52:16.600Z,71.20
2018-08-03T04:54:51.709Z,70.80
2018-08-03T04:57:27.167Z,69.00
2018-08-03T05:00:02.164Z,67.90
2018-08-03T05:02:37.244Z,68.80
2018-08-03T05:05:12.382Z,68.70
2018-08-03T05:07:47.569Z,69.30
2018-08-03T05:10:22.496Z,68.10
2018-08-03T05:12:57.649Z,67.30
2018-08-03T05:15:32.578Z,66.70
2018-08-03T05:18:08.016Z,67.80
2018-08-03T05:20:42.983Z,67.30
2018-08-03T05:23:18.024Z,66.80
2018-08-03T05:25:53.164Z,66.60
2018-08-03T05:31:02.784Z,68.20
2018-08-03T05:33:37.727Z,66.90
2018-08-03T05:36:12.837Z,67.20
2018-08-03T05:38:47.757Z,66.20
2018-08-03T05:41:22.708Z,66.20
2018-08-03T05:43:57.996Z,66.20
2018-08-03T05:49:07.744Z,67.00
2018-08-03T05:51:42.960Z,66.30
2018-08-03T05:54:18.099Z,66.70
2018-08-03T05:56:53.802Z,64.40
2018-08-03T05:59:28.876Z,62.60
2018-08-03T06:02:04.048Z,63.00
2018-08-03T06:04:39.060Z,65.20
2018-08-03T06:07:14.196Z,63.60
2018-08-03T06:09:49.295Z,62.80
2018-08-03T06:12:24.483Z,64.00
2018-08-03T06:14:59.592Z,64.30
2018-08-03T06:17:34.572Z,64.90
2018-08-03T06:20:11.732Z,64.80
2018-08-03T06:22:46.776Z,62.60
2018-08-03T06:25:21.848Z,61.20
2018-08-03T06:27:56.799Z,62.40
2018-08-03T06:30:31.939Z,64.10
2018-08-03T06:33:07.216Z,61.70
2018-08-03T06:35:42.207Z,60.60
2018-08-03T06:38:17.204Z,61.30
2018-08-03T06:40:52.420Z,61.90
2018-08-03T06:43:27.543Z,61.90
2018-08-03T06:46:02.716Z,60.30
2018-08-03T06:48:37.740Z,61.30
2018-08-03T06:51:12.721Z,64.60
2018-08-03T06:53:47.964Z,65.20
2018-08-03T06:56:23.216Z,63.80
2018-08-03T06:58:58.320Z,62.60
2018-08-03T07:01:33.340Z,62.40
2018-08-03T07:04:09.349Z,62.40
2018-08-03T07:06:44.308Z,62.90
2018-08-03T07:09:19.380Z,63.20
2018-08-03T07:11:55.584Z,64.40
2018-08-03T07:14:30.640Z,64.80
2018-08-03T07:17:05.760Z,64.20
2018-08-03T07:19:40.768Z,64.40
2018-08-03T07:22:15.867Z,62.90
2018-08-03T07:24:52.291Z,61.90
2018-08-03T07:27:28.637Z,62.70
2018-08-03T07:30:04.389Z,62.50
2018-08-03T07:32:39.347Z,62.90
2018-08-03T07:35:14.297Z,63.00
2018-08-03T07:37:49.441Z,62.60
2018-08-03T07:40:24.604Z,63.10
2018-08-03T07:42:59.767Z,64.50
2018-08-03T07:45:34.632Z,64.70
2018-08-03T07:48:09.654Z,65.20
2018-08-03T07:50:44.796Z,64.20
2018-08-03T07:53:19.904Z,64.30
2018-08-03T07:55:55.020Z,63.00
2018-08-03T07:58:30.128Z,61.60
2018-08-03T08:01:05.236Z,60.30
2018-08-03T08:03:41.503Z,58.60
2018-08-03T08:06:16.673Z,57.90
2018-08-03T08:08:51.904Z,57.10
2018-08-03T08:11:27.109Z,56.90
2018-08-03T08:14:02.262Z,55.70
2018-08-03T08:16:37.412Z,54.90
2018-08-03T08:19:12.492Z,54.70
2018-08-03T08:21:48.815Z,54.50
2018-08-03T08:24:24.010Z,53.70
2018-08-03T08:26:59.160Z,53.40
2018-08-03T08:29:34.418Z,55.30
2018-08-03T08:32:09.589Z,57.40
2018-08-03T08:34:44.584Z,59.30
2018-08-03T08:37:19.732Z,60.90
2018-08-03T08:39:54.958Z,62.20
2018-08-03T08:42:30.074Z,62.90
2018-08-03T08:45:05.280Z,63.30
2018-08-03T08:47:40.403Z,64.10
2018-08-03T08:50:15.492Z,64.40
2018-08-03T08:52:50.661Z,64.30
2018-08-03T08:55:25.747Z,64.30
2018-08-03T08:58:00.756Z,64.20
2018-08-03T09:00:35.728Z,64.20
2018-08-03T09:03:10.915Z,64.60
2018-08-03T09:05:46.068Z,64.60
2018-08-03T09:08:21.176Z,64.60
2018-08-03T09:10:56.116Z,64.70
2018-08-03T09:13:31.316Z,64.50
2018-08-03T09:16:06.544Z,64.20
2018-08-03T09:18:41.573Z,64.10
2018-08-03T09:21:16.499Z,64.00
2018-08-03T09:23:51.575Z,63.90
2018-08-03T09:26:26.572Z,63.60
2018-08-03T09:29:01.525Z,63.40
2018-08-03T09:31:36.671Z,63.50
2018-08-03T09:34:11.603Z,63.30
2018-08-03T09:36:46.672Z,63.20
2018-08-03T09:39:21.778Z,63.00
2018-08-03T09:41:56.764Z,63.20
2018-08-03T09:44:31.879Z,63.10
2018-08-03T09:47:06.895Z,62.90
2018-08-03T09:49:41.848Z,62.80
2018-08-03T09:52:16.822Z,62.70
2018-08-03T09:54:51.967Z,62.50
2018-08-03T09:57:27.025Z,62.50
2018-08-03T10:00:02.056Z,62.80
2018-08-03T10:02:37.100Z,62.90
2018-08-03T10:05:12.469Z,62.90
2018-08-03T10:07:47.432Z,63.10
2018-08-03T10:10:22.476Z,62.90
2018-08-03T10:12:57.535Z,63.00
2018-08-03T10:15:32.674Z,62.90
2018-08-03T10:18:07.559Z,62.60
2018-08-03T10:20:42.503Z,62.40
2018-08-03T10:23:17.627Z,62.20
2018-08-03T10:25:52.965Z,62.40
2018-08-03T10:28:28.035Z,62.00
2018-08-03T10:31:03.133Z,62.00
2018-08-03T10:33:38.140Z,62.20
2018-08-03T10:36:13.260Z,62.30
2018-08-03T10:38:48.228Z,62.80
2018-08-03T10:41:23.320Z,62.20
2018-08-03T10:43:58.304Z,61.60
2018-08-03T10:46:33.440Z,61.10
2018-08-03T10:49:08.604Z,60.60
2018-08-03T10:54:18.280Z,60.50
2018-08-03T10:56:53.353Z,61.20
2018-08-03T10:59:28.456Z,61.00
2018-08-03T11:02:03.598Z,61.20
2018-08-03T11:04:39.452Z,62.20
2018-08-03T11:07:14.604Z,62.30
2018-08-03T11:09:49.717Z,62.20
2018-08-03T11:12:24.808Z,61.30
2018-08-03T11:14:59.856Z,62.60
2018-08-03T11:17:34.944Z,62.70
2018-08-03T11:20:09.974Z,62.40
2018-08-03T11:22:45.396Z,62.00
2018-08-03T11:25:20.343Z,62.80
2018-08-03T11:27:55.297Z,63.10
2018-08-03T11:30:30.290Z,62.70
2018-08-03T11:33:05.357Z,62.30
2018-08-03T11:35:40.749Z,62.30
2018-08-03T11:38:15.752Z,62.80
2018-08-03T11:40:50.988Z,62.10
2018-08-03T11:43:26.008Z,61.80
2018-08-03T11:46:01.128Z,62.10
2018-08-03T11:48:36.392Z,62.60
2018-08-03T11:51:11.535Z,62.50
2018-08-03T11:53:46.689Z,62.30
2018-08-03T11:56:21.643Z,62.00
2018-08-03T11:58:56.727Z,61.20
2018-08-03T12:01:31.892Z,61.60
2018-08-03T12:04:06.859Z,61.60
2018-08-03T12:06:42.013Z,61.40
2018-08-03T12:09:17.032Z,61.70
2018-08-03T12:11:52.021Z,61.80
2018-08-03T12:14:27.028Z,62.10
2018-08-03T12:17:02.208Z,62.10
2018-08-03T12:19:37.673Z,62.40
2018-08-03T12:22:12.827Z,62.80
2018-08-03T12:24:47.780Z,62.80
2018-08-03T12:27:22.908Z,63.10
2018-08-03T12:29:57.964Z,63.40
2018-08-03T12:32:33.072Z,63.80
2018-08-03T12:35:08.184Z,64.10
2018-08-03T12:37:43.276Z,64.00
2018-08-03T12:40:18.493Z,64.20
2018-08-03T12:42:53.660Z,64.30
2018-08-03T12:45:33.995Z,64.90
2018-08-03T12:48:04.028Z,65.00
2018-08-03T12:50:39.076Z,64.90
2018-08-03T12:53:14.217Z,65.10
2018-08-03T12:55:49.408Z,65.10
2018-08-03T12:58:24.492Z,65.00
2018-08-03T13:00:59.568Z,78.50
2018-08-03T13:03:34.746Z,60.90
2018-08-03T13:06:09.856Z,53.40
2018-08-03T13:08:44.808Z,47.00
2018-08-03T13:11:20.011Z,45.00
2018-08-03T13:13:54.974Z,43.80
2018-08-03T13:16:29.896Z,49.30
2018-08-03T13:19:04.873Z,50.10
2018-08-03T13:21:41.074Z,44.90
2018-08-03T13:24:16.050Z,43.10
2018-08-03T13:26:51.201Z,44.60
2018-08-03T13:29:26.212Z,43.90
2018-08-03T13:32:01.220Z,49.10
2018-08-03T13:34:36.356Z,41.10
2018-08-03T13:37:11.436Z,42.30
2018-08-03T13:39:46.577Z,41.00
2018-08-03T13:42:38.637Z,45.90
2018-08-03T13:45:13.703Z,46.50
2018-08-03T13:47:48.720Z,43.90
2018-08-03T13:50:24.066Z,43.60
2018-08-03T13:52:59.083Z,46.70
2018-08-03T13:55:34.032Z,41.80
2018-08-03T13:58:09.009Z,41.70
2018-08-03T14:00:44.652Z,40.40
2018-08-03T14:03:19.797Z,42.00
2018-08-03T14:05:54.819Z,41.20
2018-08-03T14:08:29.949Z,41.50
2018-08-03T14:11:04.996Z,40.20
2018-08-03T14:13:39.916Z,41.20
2018-08-03T14:16:15.160Z,40.30
2018-08-03T14:18:50.241Z,40.30
2018-08-03T14:21:25.365Z,41.00
2018-08-03T14:24:00.524Z,40.90
2018-08-03T14:26:35.539Z,39.60
2018-08-03T14:29:10.546Z,40.00
2018-08-03T14:31:45.695Z,42.70
2018-08-03T14:34:20.786Z,42.90
2018-08-03T14:36:55.932Z,40.60
2018-08-03T14:39:30.973Z,40.50
2018-08-03T14:42:06.062Z,41.90
2018-08-03T14:44:41.227Z,40.90
2018-08-03T14:47:16.315Z,40.30
2018-08-03T14:49:51.628Z,44.10
2018-08-03T14:52:26.808Z,41.50
2018-08-03T14:55:02.108Z,40.40
2018-08-03T14:57:37.350Z,39.40
2018-08-03T15:00:12.533Z,45.90
2018-08-03T15:05:22.501Z,46.40
2018-08-03T15:07:57.878Z,47.10
2018-08-03T15:10:33.028Z,46.50
2018-08-03T15:13:08.152Z,42.10
2018-08-03T15:15:43.201Z,44.40
2018-08-03T15:18:18.336Z,39.70
2018-08-03T15:23:28.383Z,40.60
2018-08-03T15:26:03.438Z,44.10
2018-08-03T15:28:38.472Z,40.00
2018-08-03T15:31:13.428Z,39.70
2018-08-03T15:33:48.604Z,41.90
2018-08-03T15:36:23.532Z,42.40
2018-08-03T15:38:58.618Z,39.90
2018-08-03T15:41:33.656Z,43.30
2018-08-03T15:44:08.642Z,42.70
2018-08-03T15:46:43.687Z,43.80
2018-08-03T15:49:18.756Z,40.90
2018-08-03T15:51:53.970Z,43.10
2018-08-03T15:54:29.297Z,45.20
2018-08-03T15:57:04.640Z,43.30
2018-08-03T15:59:39.577Z,44.00
2018-08-03T16:02:14.589Z,45.20
2018-08-03T16:04:49.684Z,43.70
2018-08-03T16:07:24.880Z,43.10
2018-08-03T16:09:59.963Z,40.50
2018-08-03T16:15:09.628Z,43.70
2018-08-03T16:17:44.640Z,46.80
2018-08-03T16:20:19.746Z,46.20
2018-08-03T16:22:54.848Z,45.80
2018-08-03T16:28:05.833Z,46.60
2018-08-03T16:30:40.860Z,46.60
2018-08-03T16:33:16.005Z,46.80
2018-08-03T16:35:51.440Z,46.60
2018-08-03T16:38:26.515Z,46.80
2018-08-03T16:41:01.668Z,46.30
2018-08-03T16:43:36.651Z,46.50
2018-08-03T16:46:11.771Z,46.30
2018-08-03T16:48:46.930Z,46.00
2018-08-03T16:51:21.940Z,46.80
2018-08-03T16:53:57.225Z,46.50
2018-08-03T16:56:32.355Z,45.40
2018-08-03T16:59:07.483Z,44.30
2018-08-03T17:01:42.423Z,43.70
2018-08-03T17:04:17.395Z,45.60
2018-08-03T17:06:52.536Z,44.50
2018-08-03T17:09:27.668Z,45.50
2018-08-03T17:12:02.680Z,45.90
2018-08-03T17:14:37.723Z,44.30
2018-08-03T17:17:12.992Z,43.60
2018-08-03T17:19:48.106Z,43.30
2018-08-03T17:22:23.152Z,44.70
2018-08-03T17:24:58.160Z,43.60
2018-08-03T17:27:33.375Z,43.60
2018-08-03T17:30:08.578Z,42.00
2018-08-03T17:32:43.624Z,42.80
2018-08-03T17:35:18.649Z,42.10
2018-08-03T17:37:53.732Z,43.50
2018-08-03T17:40:28.848Z,42.10
2018-08-03T17:43:03.812Z,42.00
2018-08-03T17:45:38.935Z,43.80
2018-08-03T17:48:13.906Z,44.20
2018-08-03T17:50:49.012Z,42.90
2018-08-03T17:53:24.100Z,43.70
2018-08-03T17:55:59.562Z,44.60
2018-08-03T17:58:34.607Z,41.90
2018-08-03T18:01:10.360Z,44.80
2018-08-03T18:03:45.260Z,43.00
2018-08-03T18:06:20.817Z,42.70
2018-08-03T18:08:55.804Z,42.60
2018-08-03T18:11:30.921Z,43.60
2018-08-03T18:14:06.056Z,43.10
2018-08-03T18:16:41.296Z,42.40
2018-08-03T18:19:16.671Z,42.00
2018-08-03T18:21:51.653Z,44.10
2018-08-03T18:24:26.824Z,43.60
2018-08-03T18:27:01.848Z,43.50
2018-08-03T18:29:36.840Z,46.00
2018-08-03T18:32:11.952Z,43.90
2018-08-03T18:34:47.113Z,44.70
2018-08-03T18:37:22.099Z,45.90
2018-08-03T18:39:57.281Z,46.60
2018-08-03T18:45:08.067Z,44.10
2018-08-03T18:47:43.188Z,45.80
2018-08-03T18:50:18.381Z,45.90
2018-08-03T18:52:53.383Z,45.00
2018-08-03T18:55:28.536Z,45.50
2018-08-03T18:58:03.649Z,46.50
2018-08-03T19:00:38.677Z,45.70
2018-08-03T19:05:48.412Z,44.30
2018-08-03T19:08:23.547Z,45.80
2018-08-03T19:10:58.829Z,47.90
2018-08-03T19:13:33.936Z,48.00
2018-08-03T19:16:09.821Z,46.00
2018-08-03T19:18:44.848Z,47.80
2018-08-03T19:21:19.870Z,49.10
2018-08-03T19:23:54.853Z,49.00
2018-08-03T19:26:29.968Z,48.90
2018-08-03T19:29:05.178Z,49.40
2018-08-03T19:31:40.361Z,49.60
2018-08-03T19:34:15.376Z,49.80
2018-08-03T19:36:50.382Z,50.80
2018-08-03T19:39:25.510Z,50.40
2018-08-03T19:42:00.638Z,50.60
2018-08-03T19:44:35.796Z,50.40
2018-08-03T19:47:10.925Z,51.30
2018-08-03T19:49:45.864Z,51.20
2018-08-03T19:52:21.004Z,51.20
2018-08-03T19:54:56.012Z,51.50
2018-08-03T20:00:08.072Z,51.30
2018-08-03T20:02:43.052Z,51.70
2018-08-03T20:05:18.268Z,52.00
2018-08-03T20:07:53.350Z,52.90
2018-08-03T20:10:28.440Z,51.90
2018-08-03T20:13:03.683Z,53.80
2018-08-03T20:15:38.688Z,52.80
2018-08-03T20:18:13.752Z,53.10
2018-08-03T20:20:48.964Z,52.90
2018-08-03T20:23:24.133Z,53.20
2018-08-03T20:25:59.274Z,52.70
2018-08-03T20:28:34.413Z,54.60
2018-08-03T20:33:44.496Z,53.90
2018-08-03T20:36:19.524Z,52.80
2018-08-03T20:38:54.501Z,52.60
2018-08-03T20:41:29.707Z,53.80
2018-08-03T20:44:04.777Z,53.60
2018-08-03T20:46:39.911Z,53.70
2018-08-03T20:49:14.962Z,53.50
2018-08-03T20:51:50.049Z,53.70
2018-08-03T20:54:25.296Z,53.10
2018-08-03T20:57:00.450Z,53.80
2018-08-03T20:59:35.569Z,52.90
2018-08-03T21:02:10.592Z,53.40
2018-08-03T21:04:45.656Z,55.10
2018-08-03T21:07:20.760Z,53.70
2018-08-03T21:09:55.804Z,53.90
2018-08-03T21:12:30.829Z,53.90
2018-08-03T21:15:07.009Z,53.80
2018-08-03T21:17:42.067Z,53.90
2018-08-03T21:20:17.084Z,54.40
2018-08-03T21:22:52.085Z,54.20
2018-08-03T21:25:27.040Z,54.50
2018-08-03T21:28:02.117Z,54.30
2018-08-03T21:30:37.104Z,54.70
2018-08-03T21:35:47.043Z,56.10
2018-08-03T21:38:22.187Z,55.10
2018-08-03T21:40:57.150Z,55.20
2018-08-03T21:43:32.284Z,55.20
2018-08-03T21:46:07.420Z,55.00
2018-08-03T21:48:42.460Z,53.80
2018-08-03T21:51:17.421Z,53.60
2018-08-03T21:53:52.959Z,53.20
2018-08-03T21:56:28.057Z,53.20
2018-08-03T21:59:03.085Z,53.40
2018-08-03T22:01:38.347Z,53.50
2018-08-03T22:04:13.344Z,53.70
2018-08-03T22:06:48.336Z,54.10
2018-08-03T22:09:23.392Z,54.60
2018-08-03T22:11:58.720Z,54.60
2018-08-03T22:14:33.768Z,55.10
2018-08-03T22:17:08.872Z,53.80
2018-08-03T22:19:43.824Z,55.00
2018-08-03T22:22:18.856Z,54.20
2018-08-03T22:24:53.820Z,53.00
2018-08-03T22:27:28.775Z,52.90
2018-08-03T22:30:04.527Z,53.70
2018-08-03T22:32:39.660Z,52.30
2018-08-03T22:35:14.495Z,51.80
2018-08-03T22:37:49.579Z,52.30
2018-08-03T22:40:24.591Z,53.90
2018-08-03T22:42:59.683Z,52.10
2018-08-03T22:45:34.914Z,53.10
2018-08-03T22:48:09.937Z,52.00
2018-08-03T22:50:45.076Z,54.00
2018-08-03T22:53:20.027Z,53.90
2018-08-03T22:55:55.044Z,53.90
2018-08-03T22:58:30.076Z,54.70
2018-08-03T23:01:05.367Z,54.60
2018-08-03T23:03:40.335Z,53.80
2018-08-03T23:06:15.436Z,53.00
2018-08-03T23:08:50.612Z,53.20
2018-08-03T23:11:25.672Z,53.30
2018-08-03T23:14:00.726Z,54.10
2018-08-03T23:16:35.855Z,54.60
2018-08-03T23:19:10.977Z,54.90
2018-08-03T23:21:46.044Z,55.10
2018-08-03T23:24:21.178Z,55.50
2018-08-03T23:26:56.140Z,55.80
2018-08-03T23:29:31.253Z,55.90
2018-08-03T23:32:06.352Z,55.50
2018-08-03T23:34:41.560Z,55.20
2018-08-03T23:37:16.719Z,55.90
2018-08-03T23:39:51.708Z,55.20
2018-08-03T23:42:26.752Z,54.70
2018-08-03T23:45:01.868Z,54.60
2018-08-03T23:47:37.158Z,55.10
2018-08-03T23:50:13.836Z,54.50
2018-08-03T23:52:49.668Z,54.10
2018-08-03T23:55:24.733Z,54.40
2018-08-03T23:57:59.852Z,53.70
